createdAt,value
2022-10-07T00:02:12.038Z,7.50
2022-10-07T00:04:45.159Z,7.40
2022-10-07T00:07:12.866Z,8.20
2022-10-07T00:09:39.576Z,8.20
2022-10-07T00:12:06.697Z,7.60
2022-10-07T00:14:33.504Z,7.20
2022-10-07T00:17:00.279Z,7.60
2022-10-07T00:19:27.052Z,8.00
2022-10-07T00:21:53.786Z,8.10
2022-10-07T00:24:20.581Z,7.20
2022-10-07T00:26:47.294Z,8.20
2022-10-07T00:29:14.240Z,7.90
2022-10-07T00:31:41.870Z,7.10
2022-10-07T00:34:09.804Z,7.50
2022-10-07T00:36:37.564Z,7.20
2022-10-07T00:39:10.181Z,8.50
2022-10-07T00:41:40.915Z,7.70
2022-10-07T00:44:29.475Z,8.60
2022-10-07T00:46:56.263Z,7.70
2022-10-07T00:49:23.050Z,7.00
2022-10-07T00:54:18.707Z,6.70
2022-10-07T00:56:45.405Z,6.90
2022-10-07T01:01:42.213Z,7.30
2022-10-07T01:04:10.442Z,7.00
2022-10-07T01:06:39.297Z,6.50
2022-10-07T01:09:06.534Z,5.40
2022-10-07T01:11:39.387Z,6.10
2022-10-07T01:14:55.775Z,6.90
2022-10-07T01:17:39.513Z,6.50
2022-10-07T01:20:16.251Z,6.00
2022-10-07T01:22:45.602Z,7.40
2022-10-07T01:25:20.888Z,6.60
2022-10-07T01:27:50.940Z,7.20
2022-10-07T01:30:18.169Z,6.10
2022-10-07T01:32:56.755Z,6.30
2022-10-07T01:35:25.194Z,6.00
2022-10-07T01:37:55.383Z,6.70
2022-10-07T01:40:27.438Z,6.50
2022-10-07T01:42:54.750Z,6.90
2022-10-07T01:45:22.277Z,6.20
2022-10-07T01:47:49.172Z,5.70
2022-10-07T01:50:16.545Z,6.00
2022-10-07T01:53:15.497Z,6.60
2022-10-07T01:55:57.777Z,6.60
2022-10-07T01:58:48.265Z,6.10
2022-10-07T02:01:19.383Z,6.20
2022-10-07T02:04:07.533Z,6.30
2022-10-07T02:06:51.283Z,5.90
2022-10-07T02:09:34.023Z,5.80
2022-10-07T02:12:21.563Z,5.90
2022-10-07T02:14:54.933Z,7.20
2022-10-07T02:17:23.516Z,5.90
2022-10-07T02:19:53.478Z,6.00
2022-10-07T02:22:22.171Z,5.60
2022-10-07T02:24:49.331Z,6.30
2022-10-07T02:27:20.141Z,6.10
2022-10-07T02:29:49.943Z,6.60
2022-10-07T02:32:19.901Z,5.90
2022-10-07T02:34:49.030Z,6.30
2022-10-07T02:37:20.480Z,5.80
2022-10-07T02:39:47.512Z,5.30
2022-10-07T02:42:38.207Z,4.80
2022-10-07T02:45:08.173Z,5.20
2022-10-07T02:47:39.408Z,4.30
2022-10-07T02:50:07.905Z,4.60
2022-10-07T02:52:34.580Z,4.70
2022-10-07T02:55:06.171Z,4.80
2022-10-07T02:57:35.411Z,4.60
2022-10-07T03:00:04.287Z,5.40
2022-10-07T03:02:56.264Z,4.30
2022-10-07T03:05:26.488Z,4.50
2022-10-07T03:08:07.227Z,4.60
2022-10-07T03:10:34.360Z,5.30
2022-10-07T03:13:05.101Z,4.60
2022-10-07T03:15:39.750Z,4.50
2022-10-07T03:18:26.423Z,4.10
2022-10-07T03:20:55.868Z,4.50
2022-10-07T03:23:26.475Z,4.50
2022-10-07T03:25:54.188Z,5.00
2022-10-07T03:28:22.371Z,5.20
2022-10-07T03:30:49.256Z,5.10
2022-10-07T03:33:16.602Z,4.90
2022-10-07T03:35:43.367Z,4.40
2022-10-07T03:38:10.678Z,4.20
2022-10-07T03:40:38.346Z,4.40
2022-10-07T03:43:06.044Z,4.10
2022-10-07T03:45:32.782Z,3.90
2022-10-07T03:47:59.763Z,3.20
2022-10-07T03:52:53.318Z,4.20
2022-10-07T03:55:20.085Z,3.20
2022-10-07T04:00:27.662Z,3.60
2022-10-07T04:02:54.771Z,3.10
2022-10-07T04:05:21.602Z,3.40
2022-10-07T04:07:49.383Z,3.30
2022-10-07T04:10:17.518Z,4.00
2022-10-07T04:12:44.576Z,3.10
2022-10-07T04:15:14.618Z,4.60
2022-10-07T04:17:43.311Z,3.60
2022-10-07T04:20:10.679Z,3.10
2022-10-07T04:22:38.028Z,3.70
2022-10-07T04:25:24.419Z,3.30
2022-10-07T04:27:54.819Z,3.80
2022-10-07T04:30:23.090Z,3.80
2022-10-07T04:32:50.576Z,3.60
2022-10-07T04:35:21.563Z,3.60
2022-10-07T04:37:49.972Z,3.50
2022-10-07T04:40:17.142Z,3.00
2022-10-07T04:43:02.686Z,3.60
2022-10-07T04:45:29.405Z,3.80
2022-10-07T04:47:56.216Z,4.10
2022-10-07T04:50:23.247Z,3.10
2022-10-07T04:55:16.949Z,3.30
2022-10-07T04:57:44.874Z,3.50
2022-10-07T05:00:13.305Z,3.60
2022-10-07T05:02:40.398Z,3.30
2022-10-07T05:05:07.621Z,3.90
2022-10-07T05:07:34.591Z,3.30
2022-10-07T05:10:01.872Z,3.40
2022-10-07T05:12:29.841Z,3.00
2022-10-07T05:14:57.171Z,3.40
2022-10-07T05:17:24.733Z,3.90
2022-10-07T05:19:51.532Z,3.70
2022-10-07T05:22:18.397Z,3.70
2022-10-07T05:27:13.469Z,4.00
2022-10-07T05:29:40.371Z,2.70
2022-10-07T05:32:07.229Z,3.60
2022-10-07T05:34:34.053Z,3.10
2022-10-07T05:39:28.071Z,3.30
2022-10-07T05:41:58.923Z,3.50
2022-10-07T05:44:32.179Z,3.50
2022-10-07T05:46:59.365Z,3.60
2022-10-07T05:49:27.832Z,3.50
2022-10-07T05:51:55.637Z,3.80
2022-10-07T05:54:22.771Z,3.10
2022-10-07T05:59:17.059Z,2.60
2022-10-07T06:01:44.229Z,2.70
2022-10-07T06:04:15.032Z,2.70
2022-10-07T06:06:44.018Z,2.90
2022-10-07T06:09:30.194Z,2.80
2022-10-07T06:12:15.875Z,2.90
2022-10-07T06:14:43.079Z,3.10
2022-10-07T06:17:10.091Z,3.00
2022-10-07T06:19:37.745Z,3.70
2022-10-07T06:22:04.754Z,3.20
2022-10-07T06:24:33.815Z,2.40
2022-10-07T06:27:01.078Z,3.10
2022-10-07T06:29:28.668Z,3.30
2022-10-07T06:31:55.400Z,3.40
2022-10-07T06:34:22.109Z,3.90
2022-10-07T06:36:48.762Z,3.60
2022-10-07T06:39:16.699Z,2.70
2022-10-07T06:41:43.528Z,2.60
2022-10-07T06:44:39.780Z,2.50
2022-10-07T06:47:11.708Z,2.90
2022-10-07T06:49:39.440Z,3.00
2022-10-07T06:52:06.744Z,2.90
2022-10-07T06:54:34.653Z,2.60
2022-10-07T06:57:01.473Z,3.60
2022-10-07T06:59:28.547Z,2.50
2022-10-07T07:02:00.623Z,3.10
2022-10-07T07:04:28.243Z,3.30
2022-10-07T07:06:55.035Z,3.00
2022-10-07T07:09:22.867Z,3.10
2022-10-07T07:11:52.935Z,2.60
2022-10-07T07:14:25.922Z,2.60
2022-10-07T07:17:00.553Z,3.40
2022-10-07T07:19:27.497Z,2.80
2022-10-07T07:21:54.451Z,3.30
2022-10-07T07:24:22.061Z,2.20
2022-10-07T07:26:48.832Z,3.70
2022-10-07T07:29:16.587Z,3.30
2022-10-07T07:32:00.002Z,2.60
2022-10-07T07:34:30.211Z,2.60
2022-10-07T07:36:57.315Z,3.10
2022-10-07T07:39:27.865Z,2.20
2022-10-07T07:42:00.601Z,2.20
2022-10-07T07:44:33.973Z,3.20
2022-10-07T07:47:02.315Z,2.90
2022-10-07T07:49:31.968Z,2.60
2022-10-07T07:51:59.248Z,2.40
2022-10-07T07:54:29.499Z,2.50
2022-10-07T07:56:56.745Z,2.90
2022-10-07T07:59:25.220Z,2.50
2022-10-07T08:01:52.103Z,2.40
2022-10-07T08:04:18.822Z,2.50
2022-10-07T08:06:45.537Z,2.50
2022-10-07T08:09:13.085Z,2.70
2022-10-07T08:11:42.447Z,3.00
2022-10-07T08:14:09.201Z,2.20
2022-10-07T08:16:37.072Z,2.90
2022-10-07T08:19:04.418Z,2.20
2022-10-07T08:21:34.186Z,2.30
2022-10-07T08:24:02.802Z,2.40
2022-10-07T08:26:32.852Z,3.00
2022-10-07T08:29:01.475Z,2.30
2022-10-07T08:31:28.571Z,3.00
2022-10-07T08:33:56.859Z,3.00
2022-10-07T08:36:24.271Z,2.90
2022-10-07T08:38:51.135Z,2.40
2022-10-07T08:41:37.187Z,2.70
2022-10-07T08:44:19.263Z,2.60
2022-10-07T08:47:08.775Z,2.50
2022-10-07T08:49:53.913Z,4.20
2022-10-07T08:52:32.781Z,12.60
2022-10-07T08:55:01.356Z,4.40
2022-10-07T08:58:08.522Z,3.00
2022-10-07T09:00:54.226Z,2.10
2022-10-07T09:03:35.825Z,3.10
2022-10-07T09:06:04.892Z,2.20
2022-10-07T09:08:33.698Z,2.10
2022-10-07T09:11:51.577Z,3.10
2022-10-07T09:14:29.191Z,2.20
2022-10-07T09:16:58.694Z,1.90
2022-10-07T09:19:58.277Z,2.40
2022-10-07T09:22:32.408Z,2.00
2022-10-07T09:25:15.586Z,2.60
2022-10-07T09:27:42.605Z,2.50
2022-10-07T09:30:12.337Z,20.10
2022-10-07T09:32:40.764Z,2.60
2022-10-07T09:35:30.041Z,1.60
2022-10-07T09:37:56.743Z,1.50
2022-10-07T09:41:02.589Z,1.90
2022-10-07T09:43:32.601Z,2.90
2022-10-07T09:45:59.574Z,2.60
2022-10-07T09:48:28.285Z,2.40
2022-10-07T09:51:15.451Z,2.30
2022-10-07T09:54:00.077Z,2.30
2022-10-07T09:56:34.864Z,2.30
2022-10-07T09:59:23.954Z,2.40
2022-10-07T10:02:01.028Z,4.90
2022-10-07T10:07:05.926Z,2.90
2022-10-07T10:09:32.858Z,3.00
2022-10-07T10:12:15.002Z,2.40
2022-10-07T10:14:47.896Z,3.10
2022-10-07T10:17:29.932Z,2.90
2022-10-07T10:20:16.997Z,2.30
2022-10-07T10:22:44.000Z,2.40
2022-10-07T10:25:29.813Z,3.00
2022-10-07T10:28:22.100Z,2.40
2022-10-07T10:30:57.351Z,2.00
2022-10-07T10:33:32.341Z,3.20
2022-10-07T10:36:07.060Z,2.10
2022-10-07T10:38:37.610Z,2.60
2022-10-07T10:41:20.010Z,1.60
2022-10-07T10:44:05.886Z,1.90
2022-10-07T10:46:57.379Z,2.80
2022-10-07T10:49:30.377Z,2.30
2022-10-07T10:52:08.701Z,3.40
2022-10-07T10:55:01.248Z,2.30
2022-10-07T10:57:46.343Z,2.30
2022-10-07T11:00:15.131Z,1.90
2022-10-07T11:03:00.715Z,2.50
2022-10-07T11:05:37.040Z,3.80
2022-10-07T11:08:07.768Z,2.60
2022-10-07T11:10:54.409Z,2.20
2022-10-07T11:13:58.030Z,2.10
2022-10-07T11:16:42.461Z,2.30
2022-10-07T13:38:22.196Z,2.80
2022-10-07T13:41:18.393Z,3.10
2022-10-07T13:43:45.699Z,2.10
2022-10-07T13:46:13.768Z,2.70
2022-10-07T13:48:45.361Z,4.40
2022-10-07T13:51:25.478Z,2.60
2022-10-07T13:53:54.198Z,3.10
2022-10-07T13:56:37.280Z,2.90
2022-10-07T13:59:03.939Z,2.20
2022-10-07T14:01:31.641Z,3.00
2022-10-07T14:04:14.446Z,2.30
2022-10-07T14:07:09.302Z,2.60
2022-10-07T14:09:35.942Z,3.60
2022-10-07T14:14:51.504Z,2.90
2022-10-07T14:17:25.721Z,3.10
2022-10-07T14:19:56.181Z,8.50
2022-10-07T14:22:41.208Z,75.60
2022-10-07T14:25:20.059Z,91.50
2022-10-07T14:27:46.540Z,37.50
2022-10-07T14:33:24.498Z,8.70
2022-10-07T14:36:11.335Z,8.10
2022-10-07T14:38:37.995Z,36.10
2022-10-07T14:43:31.274Z,28.70
2022-10-07T14:48:24.203Z,7.80
2022-10-07T14:53:18.371Z,11.30
2022-10-07T14:58:11.486Z,27.10
2022-10-07T15:00:39.805Z,50.00
2022-10-07T15:03:06.445Z,45.60
2022-10-07T15:08:00.691Z,28.80
2022-10-07T15:10:27.859Z,18.50
2022-10-07T15:12:55.282Z,19.50
2022-10-07T15:15:24.942Z,22.10
2022-10-07T15:20:17.758Z,31.50
2022-10-07T15:25:11.957Z,52.90
2022-10-07T15:27:39.319Z,58.90
2022-10-07T15:30:06.561Z,54.50
2022-10-07T15:32:34.394Z,51.60
2022-10-07T15:35:01.071Z,43.50
2022-10-07T15:39:54.277Z,44.90
2022-10-07T15:44:49.466Z,46.50
2022-10-07T15:47:16.318Z,41.90
2022-10-07T15:49:43.078Z,40.30
2022-10-07T15:52:10.905Z,40.40
2022-10-07T15:54:37.819Z,41.00
2022-10-07T15:57:04.288Z,35.10
2022-10-07T15:59:31.480Z,32.50
2022-10-07T16:01:58.505Z,28.30
2022-10-07T16:06:52.224Z,22.60
2022-10-07T16:09:21.201Z,19.00
2022-10-07T16:11:47.960Z,20.90
2022-10-07T16:14:20.609Z,22.40
2022-10-07T16:16:50.711Z,21.30
2022-10-07T16:19:17.394Z,23.10
2022-10-07T16:21:44.649Z,23.20
2022-10-07T16:26:41.972Z,22.80
2022-10-07T16:29:31.736Z,20.30
2022-10-07T16:31:59.466Z,19.20
2022-10-07T16:34:27.229Z,17.70
2022-10-07T16:36:54.017Z,17.10
2022-10-07T16:41:48.701Z,18.70
2022-10-07T16:44:18.582Z,17.50
2022-10-07T16:46:45.445Z,17.90
2022-10-07T16:49:16.403Z,16.70
2022-10-07T16:51:44.053Z,14.80
2022-10-07T16:54:13.093Z,13.60
2022-10-07T16:56:40.622Z,13.70
2022-10-07T16:59:09.109Z,13.70
2022-10-07T17:01:37.206Z,13.60
2022-10-07T17:04:03.903Z,13.50
2022-10-07T17:06:31.596Z,12.70
2022-10-07T17:09:03.720Z,12.20
2022-10-07T17:11:34.461Z,12.20
2022-10-07T17:14:17.341Z,12.50
2022-10-07T17:16:54.553Z,14.80
2022-10-07T17:19:22.498Z,17.50
2022-10-07T17:21:49.172Z,16.00
2022-10-07T17:24:16.404Z,21.40
2022-10-07T17:26:44.087Z,15.00
2022-10-07T17:31:39.372Z,14.60
2022-10-07T17:34:07.106Z,13.80
2022-10-07T17:36:34.143Z,13.80
2022-10-07T17:39:00.807Z,11.60
2022-10-07T17:43:58.723Z,11.20
2022-10-07T17:46:26.916Z,11.70
2022-10-07T17:48:55.138Z,12.40
2022-10-07T17:51:23.706Z,12.80
2022-10-07T17:53:50.487Z,12.20
2022-10-07T17:56:17.187Z,13.70
2022-10-07T18:01:26.558Z,12.30
2022-10-07T18:03:57.547Z,11.60
2022-10-07T18:06:30.411Z,11.90
2022-10-07T18:09:02.309Z,26.60
2022-10-07T18:11:50.984Z,15.10
2022-10-07T18:14:36.228Z,12.60
2022-10-07T18:17:03.276Z,11.50
2022-10-07T18:19:29.862Z,11.90
2022-10-07T18:21:56.434Z,11.30
2022-10-07T18:24:27.075Z,12.00
2022-10-07T18:26:59.748Z,12.80
2022-10-07T18:29:32.831Z,13.70
2022-10-07T18:31:59.560Z,12.20
2022-10-07T18:34:26.324Z,12.20
2022-10-07T18:36:56.680Z,14.10
2022-10-07T18:39:27.178Z,17.10
2022-10-07T18:41:53.716Z,15.00
2022-10-07T18:44:20.290Z,17.90
2022-10-07T18:46:47.925Z,17.90
2022-10-07T18:49:15.065Z,18.90
2022-10-07T18:51:41.503Z,22.00
2022-10-07T18:54:09.115Z,23.10
2022-10-07T18:56:40.796Z,22.20
2022-10-07T18:59:08.267Z,22.90
2022-10-07T19:01:35.860Z,23.20
2022-10-07T19:04:02.994Z,23.80
2022-10-07T19:06:31.022Z,22.90
2022-10-07T19:08:59.239Z,24.90
2022-10-07T19:11:29.790Z,26.60
2022-10-07T19:13:58.442Z,29.10
2022-10-07T19:16:35.889Z,32.50
2022-10-07T19:19:14.869Z,33.50
2022-10-07T19:21:42.748Z,34.90
2022-10-07T19:24:09.448Z,35.20
2022-10-07T19:26:38.499Z,35.40
2022-10-07T19:29:05.738Z,34.80
2022-10-07T19:31:36.180Z,33.40
2022-10-07T19:34:07.307Z,33.00
2022-10-07T19:36:35.600Z,33.50
2022-10-07T19:39:06.208Z,57.90
2022-10-07T19:41:33.247Z,29.20
2022-10-07T19:44:00.206Z,29.10
2022-10-07T19:46:27.668Z,26.70
2022-10-07T19:48:56.299Z,23.20
2022-10-07T19:51:23.381Z,23.90
2022-10-07T19:53:50.429Z,22.80
2022-10-07T19:56:27.615Z,21.10
2022-10-07T19:58:59.640Z,18.30
2022-10-07T20:01:29.038Z,17.60
2022-10-07T20:04:03.523Z,16.40
2022-10-07T20:06:30.675Z,16.90
2022-10-07T20:08:57.963Z,14.60
2022-10-07T20:11:24.839Z,15.60
2022-10-07T20:13:53.608Z,15.20
2022-10-07T20:16:21.857Z,13.80
2022-10-07T20:18:50.564Z,14.00
2022-10-07T20:21:21.471Z,15.60
2022-10-07T20:23:48.119Z,15.00
2022-10-07T20:26:18.036Z,15.60
2022-10-07T20:28:45.374Z,27.30
2022-10-07T20:31:12.231Z,18.70
2022-10-07T20:33:39.755Z,21.90
2022-10-07T20:36:06.454Z,78.20
2022-10-07T20:41:38.058Z,26.10
2022-10-07T20:44:04.561Z,24.70
2022-10-07T20:46:33.424Z,32.10
2022-10-07T20:49:00.299Z,22.00
2022-10-07T20:51:27.328Z,19.00
2022-10-07T20:56:20.294Z,21.80
2022-10-07T20:58:46.750Z,25.00
2022-10-07T21:01:13.512Z,26.70
2022-10-07T21:03:40.548Z,28.20
2022-10-07T21:06:07.336Z,27.60
2022-10-07T21:08:33.938Z,24.70
2022-10-07T21:11:04.733Z,24.90
2022-10-07T21:13:31.632Z,23.20
2022-10-07T21:18:29.155Z,20.80
2022-10-07T21:20:57.006Z,20.30
2022-10-07T21:23:24.181Z,18.20
2022-10-07T21:25:51.210Z,18.60
2022-10-07T21:28:18.483Z,17.80
2022-10-07T21:30:53.986Z,18.00
2022-10-07T21:33:20.724Z,18.30
2022-10-07T21:35:47.836Z,20.40
2022-10-07T21:40:40.918Z,20.50
2022-10-07T21:43:08.125Z,23.80
2022-10-07T21:45:34.751Z,23.70
2022-10-07T21:48:03.009Z,28.30
2022-10-07T21:50:29.664Z,29.00
2022-10-07T21:52:56.068Z,27.50
2022-10-07T21:55:22.780Z,28.70
2022-10-07T22:00:16.100Z,28.80
2022-10-07T22:02:43.035Z,28.70
2022-10-07T22:05:10.932Z,30.50
2022-10-07T22:07:55.857Z,27.30
2022-10-07T22:10:22.404Z,26.20
2022-10-07T22:12:53.070Z,24.90
2022-10-07T22:15:19.814Z,25.50
2022-10-07T22:17:46.870Z,23.20
2022-10-07T22:20:13.406Z,24.80
2022-10-07T22:22:40.383Z,22.10
2022-10-07T22:25:07.674Z,22.80
2022-10-07T22:27:34.129Z,21.70
2022-10-07T22:30:00.719Z,20.80
2022-10-07T22:32:27.571Z,20.70
2022-10-07T22:37:40.232Z,19.10
2022-10-07T22:40:07.312Z,18.90
2022-10-07T22:42:35.430Z,18.30
2022-10-07T22:45:02.035Z,17.70
2022-10-07T22:47:28.896Z,18.40
2022-10-07T22:49:55.350Z,17.50
2022-10-07T22:52:21.775Z,17.70
2022-10-07T22:54:48.241Z,17.80
2022-10-07T22:57:14.666Z,17.80
2022-10-07T22:59:41.100Z,16.10
2022-10-07T23:02:09.022Z,16.10
2022-10-07T23:04:36.960Z,14.90
2022-10-07T23:07:04.009Z,14.40
2022-10-07T23:11:58.603Z,14.60
2022-10-07T23:14:25.372Z,14.70
2022-10-07T23:16:51.859Z,14.60
2022-10-07T23:19:18.494Z,14.30
2022-10-07T23:21:45.035Z,13.40
2022-10-07T23:24:13.151Z,14.50
2022-10-07T23:26:40.217Z,13.70
2022-10-07T23:31:34.123Z,14.50
2022-10-07T23:34:01.314Z,13.90
2022-10-07T23:36:28.292Z,13.90
2022-10-07T23:38:55.440Z,15.00
2022-10-07T23:43:54.491Z,13.60
2022-10-07T23:46:21.955Z,13.90
2022-10-07T23:48:48.785Z,13.40
2022-10-07T23:51:18.080Z,14.80
2022-10-07T23:53:50.499Z,13.10
2022-10-07T23:56:19.139Z,13.30
2022-10-07T23:58:45.624Z,12.80
